sensor_id;sensor_type;location;lat;lon;timestamp;temperature;humidity
69503;SHT31;56704;54.242;12.442;2023-03-14T00:00:32;10.06;89.29
69503;SHT31;56704;54.242;12.442;2023-03-14T00:02:58;10.04;90.01
69503;SHT31;56704;54.242;12.442;2023-03-14T00:05:25;9.99;89.51
69503;SHT31;56704;54.242;12.442;2023-03-14T00:07:52;10.03;89.98
69503;SHT31;56704;54.242;12.442;2023-03-14T00:10:18;10.00;89.92
69503;SHT31;56704;54.242;12.442;2023-03-14T00:12:46;10.00;89.68
69503;SHT31;56704;54.242;12.442;2023-03-14T00:15:13;9.96;89.76
69503;SHT31;56704;54.242;12.442;2023-03-14T00:17:42;9.96;89.73
69503;SHT31;56704;54.242;12.442;2023-03-14T00:20:10;9.94;90.20
69503;SHT31;56704;54.242;12.442;2023-03-14T00:22:38;9.93;90.01
69503;SHT31;56704;54.242;12.442;2023-03-14T00:25:06;9.93;90.03
69503;SHT31;56704;54.242;12.442;2023-03-14T00:27:33;9.96;90.33
69503;SHT31;56704;54.242;12.442;2023-03-14T00:30:01;10.00;90.06
69503;SHT31;56704;54.242;12.442;2023-03-14T00:32:28;10.01;89.84
69503;SHT31;56704;54.242;12.442;2023-03-14T00:34:55;10.03;89.61
69503;SHT31;56704;54.242;12.442;2023-03-14T00:37:21;10.03;89.65
69503;SHT31;56704;54.242;12.442;2023-03-14T00:39:48;10.01;89.55
69503;SHT31;56704;54.242;12.442;2023-03-14T00:42:14;10.04;89.55
69503;SHT31;56704;54.242;12.442;2023-03-14T00:44:41;10.09;89.21
69503;SHT31;56704;54.242;12.442;2023-03-14T00:47:09;10.11;88.98
69503;SHT31;56704;54.242;12.442;2023-03-14T00:49:35;10.21;88.87
69503;SHT31;56704;54.242;12.442;2023-03-14T00:52:03;10.18;88.76
69503;SHT31;56704;54.242;12.442;2023-03-14T00:54:29;10.20;88.60
69503;SHT31;56704;54.242;12.442;2023-03-14T00:56:56;10.17;88.72
69503;SHT31;56704;54.242;12.442;2023-03-14T00:59:22;10.17;88.61
69503;SHT31;56704;54.242;12.442;2023-03-14T01:01:49;10.25;88.47
69503;SHT31;56704;54.242;12.442;2023-03-14T01:04:17;10.21;88.25
69503;SHT31;56704;54.242;12.442;2023-03-14T01:06:43;10.30;88.12
69503;SHT31;56704;54.242;12.442;2023-03-14T01:09:10;10.36;88.04
69503;SHT31;56704;54.242;12.442;2023-03-14T01:11:36;10.40;87.01
69503;SHT31;56704;54.242;12.442;2023-03-14T01:14:04;10.47;87.48
69503;SHT31;56704;54.242;12.442;2023-03-14T01:16:33;10.50;86.79
69503;SHT31;56704;54.242;12.442;2023-03-14T01:19:00;10.52;86.57
69503;SHT31;56704;54.242;12.442;2023-03-14T01:21:30;10.54;86.80
69503;SHT31;56704;54.242;12.442;2023-03-14T01:23:58;10.62;86.40
69503;SHT31;56704;54.242;12.442;2023-03-14T01:26:27;10.62;87.33
69503;SHT31;56704;54.242;12.442;2023-03-14T01:28:54;10.61;86.28
69503;SHT31;56704;54.242;12.442;2023-03-14T01:31:21;10.55;86.49
69503;SHT31;56704;54.242;12.442;2023-03-14T01:33:48;10.57;86.65
69503;SHT31;56704;54.242;12.442;2023-03-14T01:36:15;10.57;86.32
69503;SHT31;56704;54.242;12.442;2023-03-14T01:38:43;10.54;86.74
69503;SHT31;56704;54.242;12.442;2023-03-14T01:41:13;10.58;86.57
69503;SHT31;56704;54.242;12.442;2023-03-14T01:43:40;10.54;86.48
69503;SHT31;56704;54.242;12.442;2023-03-14T01:46:22;10.54;86.66
69503;SHT31;56704;54.242;12.442;2023-03-14T01:48:57;10.52;86.40
69503;SHT31;56704;54.242;12.442;2023-03-14T01:51:28;10.55;86.31
69503;SHT31;56704;54.242;12.442;2023-03-14T01:54:01;10.50;86.95
69503;SHT31;56704;54.242;12.442;2023-03-14T01:56:30;10.65;86.45
69503;SHT31;56704;54.242;12.442;2023-03-14T01:58:58;10.69;86.87
69503;SHT31;56704;54.242;12.442;2023-03-14T02:01:26;10.79;86.18
69503;SHT31;56704;54.242;12.442;2023-03-14T02:03:55;10.81;85.77
69503;SHT31;56704;54.242;12.442;2023-03-14T02:06:24;10.82;85.60
69503;SHT31;56704;54.242;12.442;2023-03-14T02:08:52;10.76;85.35
69503;SHT31;56704;54.242;12.442;2023-03-14T02:11:21;10.76;85.44
69503;SHT31;56704;54.242;12.442;2023-03-14T02:13:51;10.78;85.86
69503;SHT31;56704;54.242;12.442;2023-03-14T02:16:18;10.75;84.86
69503;SHT31;56704;54.242;12.442;2023-03-14T02:18:44;10.67;86.28
69503;SHT31;56704;54.242;12.442;2023-03-14T02:21:16;10.71;85.57
69503;SHT31;56704;54.242;12.442;2023-03-14T02:23:52;10.72;85.04
69503;SHT31;56704;54.242;12.442;2023-03-14T02:26:22;10.68;85.18
69503;SHT31;56704;54.242;12.442;2023-03-14T02:28:53;10.73;85.20
69503;SHT31;56704;54.242;12.442;2023-03-14T02:31:21;10.71;85.40
69503;SHT31;56704;54.242;12.442;2023-03-14T02:33:48;10.71;85.98
69503;SHT31;56704;54.242;12.442;2023-03-14T02:36:17;10.71;85.91
69503;SHT31;56704;54.242;12.442;2023-03-14T02:38:47;10.61;86.05
69503;SHT31;56704;54.242;12.442;2023-03-14T02:41:16;10.65;86.33
69503;SHT31;56704;54.242;12.442;2023-03-14T02:43:42;10.72;86.71
69503;SHT31;56704;54.242;12.442;2023-03-14T02:46:13;10.64;86.87
69503;SHT31;56704;54.242;12.442;2023-03-14T02:48:42;10.62;86.90
69503;SHT31;56704;54.242;12.442;2023-03-14T02:51:10;10.57;87.00
69503;SHT31;56704;54.242;12.442;2023-03-14T02:53:38;10.54;87.02
69503;SHT31;56704;54.242;12.442;2023-03-14T02:56:07;10.51;87.39
69503;SHT31;56704;54.242;12.442;2023-03-14T02:58:34;10.50;86.92
69503;SHT31;56704;54.242;12.442;2023-03-14T03:01:01;10.50;86.75
69503;SHT31;56704;54.242;12.442;2023-03-14T03:03:29;10.50;86.80
69503;SHT31;56704;54.242;12.442;2023-03-14T03:05:56;10.48;87.16
69503;SHT31;56704;54.242;12.442;2023-03-14T03:08:24;10.47;86.76
69503;SHT31;56704;54.242;12.442;2023-03-14T03:10:52;10.51;86.14
69503;SHT31;56704;54.242;12.442;2023-03-14T03:13:19;10.58;85.86
69503;SHT31;56704;54.242;12.442;2023-03-14T03:15:46;10.57;86.47
69503;SHT31;56704;54.242;12.442;2023-03-14T03:18:13;10.55;86.57
69503;SHT31;56704;54.242;12.442;2023-03-14T03:20:41;10.62;85.95
69503;SHT31;56704;54.242;12.442;2023-03-14T03:23:07;10.68;86.11
69503;SHT31;56704;54.242;12.442;2023-03-14T03:25:34;10.65;85.83
69503;SHT31;56704;54.242;12.442;2023-03-14T03:28:01;10.67;85.77
69503;SHT31;56704;54.242;12.442;2023-03-14T03:30:32;10.69;85.56
69503;SHT31;56704;54.242;12.442;2023-03-14T03:32:59;10.82;84.94
69503;SHT31;56704;54.242;12.442;2023-03-14T03:35:26;10.83;85.36
69503;SHT31;56704;54.242;12.442;2023-03-14T03:37:53;10.86;84.49
69503;SHT31;56704;54.242;12.442;2023-03-14T03:40:20;10.83;84.69
69503;SHT31;56704;54.242;12.442;2023-03-14T03:42:47;10.89;84.08
69503;SHT31;56704;54.242;12.442;2023-03-14T03:45:13;10.89;84.64
69503;SHT31;56704;54.242;12.442;2023-03-14T03:47:40;10.92;83.91
69503;SHT31;56704;54.242;12.442;2023-03-14T03:50:07;10.91;84.39
69503;SHT31;56704;54.242;12.442;2023-03-14T03:52:34;11.00;83.96
69503;SHT31;56704;54.242;12.442;2023-03-14T03:55:02;10.92;83.80
69503;SHT31;56704;54.242;12.442;2023-03-14T03:57:28;10.91;84.91
69503;SHT31;56704;54.242;12.442;2023-03-14T03:59:55;10.88;84.72
69503;SHT31;56704;54.242;12.442;2023-03-14T04:02:21;10.82;84.11
69503;SHT31;56704;54.242;12.442;2023-03-14T04:04:48;10.85;84.21
69503;SHT31;56704;54.242;12.442;2023-03-14T04:07:15;10.85;84.59
69503;SHT31;56704;54.242;12.442;2023-03-14T04:09:41;10.85;83.93
69503;SHT31;56704;54.242;12.442;2023-03-14T04:12:09;10.85;84.22
69503;SHT31;56704;54.242;12.442;2023-03-14T04:14:36;10.85;83.71
69503;SHT31;56704;54.242;12.442;2023-03-14T04:17:02;10.92;83.43
69503;SHT31;56704;54.242;12.442;2023-03-14T04:19:29;10.93;82.99
69503;SHT31;56704;54.242;12.442;2023-03-14T04:21:56;10.99;82.60
69503;SHT31;56704;54.242;12.442;2023-03-14T04:24:22;10.91;83.60
69503;SHT31;56704;54.242;12.442;2023-03-14T04:26:49;10.86;83.96
69503;SHT31;56704;54.242;12.442;2023-03-14T04:29:17;10.67;84.70
69503;SHT31;56704;54.242;12.442;2023-03-14T04:31:43;10.57;85.09
69503;SHT31;56704;54.242;12.442;2023-03-14T04:34:10;10.48;85.74
69503;SHT31;56704;54.242;12.442;2023-03-14T04:36:36;10.41;85.85
69503;SHT31;56704;54.242;12.442;2023-03-14T04:39:03;10.31;86.43
69503;SHT31;56704;54.242;12.442;2023-03-14T04:41:30;10.24;85.73
69503;SHT31;56704;54.242;12.442;2023-03-14T04:43:57;10.17;85.83
69503;SHT31;56704;54.242;12.442;2023-03-14T04:46:25;10.13;86.07
69503;SHT31;56704;54.242;12.442;2023-03-14T04:48:51;10.11;85.77
69503;SHT31;56704;54.242;12.442;2023-03-14T04:51:18;10.06;86.47
69503;SHT31;56704;54.242;12.442;2023-03-14T04:53:48;10.01;86.50
69503;SHT31;56704;54.242;12.442;2023-03-14T04:56:14;10.00;86.49
69503;SHT31;56704;54.242;12.442;2023-03-14T04:58:41;10.01;86.76
69503;SHT31;56704;54.242;12.442;2023-03-14T05:01:07;9.97;86.98
69503;SHT31;56704;54.242;12.442;2023-03-14T05:03:35;9.96;87.28
69503;SHT31;56704;54.242;12.442;2023-03-14T05:06:03;9.92;87.28
69503;SHT31;56704;54.242;12.442;2023-03-14T05:08:30;9.90;87.59
69503;SHT31;56704;54.242;12.442;2023-03-14T05:10:57;9.89;87.14
69503;SHT31;56704;54.242;12.442;2023-03-14T05:13:24;9.90;87.30
69503;SHT31;56704;54.242;12.442;2023-03-14T05:15:50;9.93;87.53
69503;SHT31;56704;54.242;12.442;2023-03-14T05:18:18;9.94;87.07
69503;SHT31;56704;54.242;12.442;2023-03-14T05:20:46;9.97;87.04
69503;SHT31;56704;54.242;12.442;2023-03-14T05:23:12;9.97;86.76
69503;SHT31;56704;54.242;12.442;2023-03-14T05:25:39;10.09;86.48
69503;SHT31;56704;54.242;12.442;2023-03-14T05:28:05;10.10;86.60
69503;SHT31;56704;54.242;12.442;2023-03-14T05:30:32;10.16;86.44
69503;SHT31;56704;54.242;12.442;2023-03-14T05:32:59;10.17;85.59
69503;SHT31;56704;54.242;12.442;2023-03-14T05:35:25;10.13;85.96
69503;SHT31;56704;54.242;12.442;2023-03-14T05:37:53;10.09;85.59
69503;SHT31;56704;54.242;12.442;2023-03-14T05:40:20;10.09;86.21
69503;SHT31;56704;54.242;12.442;2023-03-14T05:42:46;9.96;85.94
69503;SHT31;56704;54.242;12.442;2023-03-14T05:45:13;10.04;85.99
69503;SHT31;56704;54.242;12.442;2023-03-14T05:47:39;10.04;86.09
69503;SHT31;56704;54.242;12.442;2023-03-14T05:50:06;9.99;86.08
69503;SHT31;56704;54.242;12.442;2023-03-14T05:52:33;10.00;86.21
69503;SHT31;56704;54.242;12.442;2023-03-14T05:55:01;10.04;86.05
69503;SHT31;56704;54.242;12.442;2023-03-14T05:57:28;10.04;85.89
69503;SHT31;56704;54.242;12.442;2023-03-14T06:00:16;10.07;85.74
69503;SHT31;56704;54.242;12.442;2023-03-14T06:02:43;10.01;85.82
69503;SHT31;56704;54.242;12.442;2023-03-14T06:05:09;10.03;85.89
69503;SHT31;56704;54.242;12.442;2023-03-14T06:07:36;10.09;86.30
69503;SHT31;56704;54.242;12.442;2023-03-14T06:10:05;10.01;86.08
69503;SHT31;56704;54.242;12.442;2023-03-14T06:12:32;10.00;86.14
69503;SHT31;56704;54.242;12.442;2023-03-14T06:14:58;10.03;86.52
69503;SHT31;56704;54.242;12.442;2023-03-14T06:17:25;9.99;85.83
69503;SHT31;56704;54.242;12.442;2023-03-14T06:19:51;10.09;85.96
69503;SHT31;56704;54.242;12.442;2023-03-14T06:22:18;10.13;86.00
69503;SHT31;56704;54.242;12.442;2023-03-14T06:24:45;10.22;85.44
69503;SHT31;56704;54.242;12.442;2023-03-14T06:27:13;10.27;85.39
69503;SHT31;56704;54.242;12.442;2023-03-14T06:29:39;10.41;84.77
69503;SHT31;56704;54.242;12.442;2023-03-14T06:32:06;10.45;84.57
69503;SHT31;56704;54.242;12.442;2023-03-14T06:34:33;10.38;84.63
69503;SHT31;56704;54.242;12.442;2023-03-14T06:36:59;10.41;84.43
69503;SHT31;56704;54.242;12.442;2023-03-14T06:39:26;10.44;84.49
69503;SHT31;56704;54.242;12.442;2023-03-14T06:41:52;10.48;84.59
69503;SHT31;56704;54.242;12.442;2023-03-14T06:44:20;10.52;84.41
69503;SHT31;56704;54.242;12.442;2023-03-14T06:46:47;10.58;84.40
69503;SHT31;56704;54.242;12.442;2023-03-14T06:49:13;10.60;84.00
69503;SHT31;56704;54.242;12.442;2023-03-14T06:51:40;10.75;84.14
69503;SHT31;56704;54.242;12.442;2023-03-14T06:54:06;10.96;83.17
69503;SHT31;56704;54.242;12.442;2023-03-14T06:56:33;11.13;83.47
69503;SHT31;56704;54.242;12.442;2023-03-14T06:59:00;11.34;82.47
69503;SHT31;56704;54.242;12.442;2023-03-14T07:01:29;11.39;82.41
69503;SHT31;56704;54.242;12.442;2023-03-14T07:03:56;11.34;81.70
69503;SHT31;56704;54.242;12.442;2023-03-14T07:06:22;11.30;82.32
69503;SHT31;56704;54.242;12.442;2023-03-14T07:08:49;11.49;81.95
69503;SHT31;56704;54.242;12.442;2023-03-14T07:11:19;11.44;82.15
69503;SHT31;56704;54.242;12.442;2023-03-14T07:13:46;11.36;81.74
69503;SHT31;56704;54.242;12.442;2023-03-14T07:16:13;11.34;81.86
69503;SHT31;56704;54.242;12.442;2023-03-14T07:18:40;11.34;81.88
69503;SHT31;56704;54.242;12.442;2023-03-14T07:21:08;11.30;82.28
69503;SHT31;56704;54.242;12.442;2023-03-14T07:23:35;11.37;81.67
69503;SHT31;56704;54.242;12.442;2023-03-14T07:26:02;11.33;81.58
69503;SHT31;56704;54.242;12.442;2023-03-14T07:28:28;11.30;81.72
69503;SHT31;56704;54.242;12.442;2023-03-14T07:30:55;11.39;81.52
69503;SHT31;56704;54.242;12.442;2023-03-14T07:33:21;11.41;80.94
69503;SHT31;56704;54.242;12.442;2023-03-14T07:35:49;11.51;81.90
69503;SHT31;56704;54.242;12.442;2023-03-14T07:38:16;11.73;81.03
69503;SHT31;56704;54.242;12.442;2023-03-14T07:40:43;11.81;81.33
69503;SHT31;56704;54.242;12.442;2023-03-14T07:43:09;11.85;79.90
69503;SHT31;56704;54.242;12.442;2023-03-14T07:45:36;11.91;80.29
69503;SHT31;56704;54.242;12.442;2023-03-14T07:48:03;11.74;80.38
69503;SHT31;56704;54.242;12.442;2023-03-14T07:50:29;11.70;80.13
69503;SHT31;56704;54.242;12.442;2023-03-14T07:52:57;11.60;80.37
69503;SHT31;56704;54.242;12.442;2023-03-14T07:55:24;11.50;81.41
69503;SHT31;56704;54.242;12.442;2023-03-14T07:57:50;11.41;81.93
69503;SHT31;56704;54.242;12.442;2023-03-14T08:00:18;11.30;82.07
69503;SHT31;56704;54.242;12.442;2023-03-14T08:02:44;11.19;84.14
69503;SHT31;56704;54.242;12.442;2023-03-14T08:05:11;10.96;84.98
69503;SHT31;56704;54.242;12.442;2023-03-14T08:07:37;10.82;86.61
69503;SHT31;56704;54.242;12.442;2023-03-14T08:10:07;10.61;87.22
69503;SHT31;56704;54.242;12.442;2023-03-14T08:12:33;10.42;88.55
69503;SHT31;56704;54.242;12.442;2023-03-14T08:15:00;10.25;89.70
69503;SHT31;56704;54.242;12.442;2023-03-14T08:17:27;10.13;90.71
69503;SHT31;56704;54.242;12.442;2023-03-14T08:19:53;10.07;90.74
69503;SHT31;56704;54.242;12.442;2023-03-14T08:22:20;9.97;91.32
69503;SHT31;56704;54.242;12.442;2023-03-14T08:24:46;9.87;91.83
69503;SHT31;56704;54.242;12.442;2023-03-14T08:27:14;9.83;92.29
69503;SHT31;56704;54.242;12.442;2023-03-14T08:29:41;9.68;93.31
69503;SHT31;56704;54.242;12.442;2023-03-14T08:32:08;9.34;95.15
69503;SHT31;56704;54.242;12.442;2023-03-14T08:34:35;9.25;94.73
69503;SHT31;56704;54.242;12.442;2023-03-14T08:37:02;9.28;94.98
69503;SHT31;56704;54.242;12.442;2023-03-14T08:39:29;9.27;93.49
69503;SHT31;56704;54.242;12.442;2023-03-14T08:41:55;9.30;93.54
69503;SHT31;56704;54.242;12.442;2023-03-14T08:44:23;9.35;93.60
69503;SHT31;56704;54.242;12.442;2023-03-14T08:46:50;9.35;93.68
69503;SHT31;56704;54.242;12.442;2023-03-14T08:49:16;9.42;93.70
69503;SHT31;56704;54.242;12.442;2023-03-14T08:51:43;9.42;93.75
69503;SHT31;56704;54.242;12.442;2023-03-14T08:54:10;9.46;93.77
69503;SHT31;56704;54.242;12.442;2023-03-14T08:56:36;9.51;93.79
69503;SHT31;56704;54.242;12.442;2023-03-14T08:59:04;9.55;93.85
69503;SHT31;56704;54.242;12.442;2023-03-14T09:01:32;9.55;93.85
69503;SHT31;56704;54.242;12.442;2023-03-14T09:03:58;9.58;93.89
69503;SHT31;56704;54.242;12.442;2023-03-14T09:06:25;9.58;93.90
69503;SHT31;56704;54.242;12.442;2023-03-14T09:08:51;9.49;93.95
69503;SHT31;56704;54.242;12.442;2023-03-14T09:11:18;9.53;93.95
69503;SHT31;56704;54.242;12.442;2023-03-14T09:13:44;9.53;94.02
69503;SHT31;56704;54.242;12.442;2023-03-14T09:16:11;9.49;93.99
69503;SHT31;56704;54.242;12.442;2023-03-14T09:18:39;9.55;94.02
69503;SHT31;56704;54.242;12.442;2023-03-14T09:21:06;9.63;94.04
69503;SHT31;56704;54.242;12.442;2023-03-14T09:23:33;9.73;94.05
69503;SHT31;56704;54.242;12.442;2023-03-14T09:26:00;9.93;94.07
69503;SHT31;56704;54.242;12.442;2023-03-14T09:28:26;10.20;94.06
69503;SHT31;56704;54.242;12.442;2023-03-14T09:30:53;10.24;94.09
69503;SHT31;56704;54.242;12.442;2023-03-14T09:33:20;10.27;94.09
69503;SHT31;56704;54.242;12.442;2023-03-14T09:35:48;10.20;94.12
69503;SHT31;56704;54.242;12.442;2023-03-14T09:38:15;10.14;94.17
69503;SHT31;56704;54.242;12.442;2023-03-14T09:40:41;10.09;94.18
69503;SHT31;56704;54.242;12.442;2023-03-14T09:43:11;10.11;94.19
69503;SHT31;56704;54.242;12.442;2023-03-14T09:45:40;10.17;94.22
69503;SHT31;56704;54.242;12.442;2023-03-14T09:48:14;10.29;94.22
69503;SHT31;56704;54.242;12.442;2023-03-14T09:50:43;10.29;94.28
69503;SHT31;56704;54.242;12.442;2023-03-14T09:53:15;10.24;94.28
69503;SHT31;56704;54.242;12.442;2023-03-14T09:55:43;10.27;94.30
69503;SHT31;56704;54.242;12.442;2023-03-14T09:58:13;10.22;94.31
69503;SHT31;56704;54.242;12.442;2023-03-14T10:00:40;10.27;94.49
69503;SHT31;56704;54.242;12.442;2023-03-14T10:03:22;10.36;89.53
69503;SHT31;56704;54.242;12.442;2023-03-14T10:05:50;10.38;89.58
69503;SHT31;56704;54.242;12.442;2023-03-14T10:08:18;10.44;89.79
69503;SHT31;56704;54.242;12.442;2023-03-14T10:10:45;10.36;88.89
69503;SHT31;56704;54.242;12.442;2023-03-14T10:13:15;10.48;88.66
69503;SHT31;56704;54.242;12.442;2023-03-14T10:15:47;10.45;88.62
69503;SHT31;56704;54.242;12.442;2023-03-14T10:18:15;10.40;87.70
69503;SHT31;56704;54.242;12.442;2023-03-14T10:20:43;10.41;87.45
69503;SHT31;56704;54.242;12.442;2023-03-14T10:23:24;10.44;87.31
69503;SHT31;56704;54.242;12.442;2023-03-14T10:26:08;10.48;86.13
69503;SHT31;56704;54.242;12.442;2023-03-14T10:28:39;10.47;87.94
69503;SHT31;56704;54.242;12.442;2023-03-14T10:31:06;10.58;85.99
69503;SHT31;56704;54.242;12.442;2023-03-14T10:33:35;10.76;86.10
69503;SHT31;56704;54.242;12.442;2023-03-14T10:36:04;10.81;86.02
69503;SHT31;56704;54.242;12.442;2023-03-14T10:38:34;10.82;85.72
69503;SHT31;56704;54.242;12.442;2023-03-14T10:41:01;10.83;85.04
69503;SHT31;56704;54.242;12.442;2023-03-14T10:43:32;10.78;85.95
69503;SHT31;56704;54.242;12.442;2023-03-14T10:46:04;10.69;85.35
69503;SHT31;56704;54.242;12.442;2023-03-14T10:48:33;10.82;84.74
69503;SHT31;56704;54.242;12.442;2023-03-14T10:51:06;10.72;85.97
69503;SHT31;56704;54.242;12.442;2023-03-14T10:53:39;10.71;86.45
69503;SHT31;56704;54.242;12.442;2023-03-14T10:56:07;10.72;86.19
69503;SHT31;56704;54.242;12.442;2023-03-14T10:58:38;10.68;87.13
69503;SHT31;56704;54.242;12.442;2023-03-14T11:01:17;10.68;84.80
69503;SHT31;56704;54.242;12.442;2023-03-14T11:03:52;10.72;83.62
69503;SHT31;56704;54.242;12.442;2023-03-14T11:06:24;10.73;85.06
69503;SHT31;56704;54.242;12.442;2023-03-14T11:08:57;10.72;83.54
69503;SHT31;56704;54.242;12.442;2023-03-14T11:11:31;10.69;84.55
69503;SHT31;56704;54.242;12.442;2023-03-14T11:14:06;10.71;85.18
69503;SHT31;56704;54.242;12.442;2023-03-14T11:16:43;10.72;84.24
69503;SHT31;56704;54.242;12.442;2023-03-14T11:19:32;10.78;84.76
69503;SHT31;56704;54.242;12.442;2023-03-14T11:22:06;10.93;83.55
69503;SHT31;56704;54.242;12.442;2023-03-14T11:24:47;10.85;85.26
69503;SHT31;56704;54.242;12.442;2023-03-14T11:27:18;10.71;86.71
69503;SHT31;56704;54.242;12.442;2023-03-14T11:29:53;10.79;85.72
69503;SHT31;56704;54.242;12.442;2023-03-14T11:32:27;10.83;86.30
69503;SHT31;56704;54.242;12.442;2023-03-14T11:34:55;10.82;87.19
69503;SHT31;56704;54.242;12.442;2023-03-14T11:37:26;9.99;89.63
69503;SHT31;56704;54.242;12.442;2023-03-14T11:40:01;8.74;91.76
69503;SHT31;56704;54.242;12.442;2023-03-14T11:42:32;7.43;92.42
69503;SHT31;56704;54.242;12.442;2023-03-14T11:45:00;6.44;93.65
69503;SHT31;56704;54.242;12.442;2023-03-14T11:47:29;5.86;93.74
69503;SHT31;56704;54.242;12.442;2023-03-14T11:50:02;5.38;94.03
69503;SHT31;56704;54.242;12.442;2023-03-14T11:52:33;5.08;94.40
69503;SHT31;56704;54.242;12.442;2023-03-14T11:55:05;4.91;95.35
69503;SHT31;56704;54.242;12.442;2023-03-14T11:57:33;4.76;95.19
69503;SHT31;56704;54.242;12.442;2023-03-14T12:00:03;4.75;95.69
69503;SHT31;56704;54.242;12.442;2023-03-14T12:02:38;4.63;94.61
69503;SHT31;56704;54.242;12.442;2023-03-14T12:05:33;4.48;95.16
69503;SHT31;56704;54.242;12.442;2023-03-14T12:08:21;4.34;94.60
69503;SHT31;56704;54.242;12.442;2023-03-14T12:10:52;4.22;94.77
69503;SHT31;56704;54.242;12.442;2023-03-14T12:13:20;4.27;95.50
69503;SHT31;56704;54.242;12.442;2023-03-14T12:15:49;4.11;94.09
69503;SHT31;56704;54.242;12.442;2023-03-14T12:18:22;4.07;94.16
69503;SHT31;56704;54.242;12.442;2023-03-14T12:20:54;3.98;94.72
69503;SHT31;56704;54.242;12.442;2023-03-14T12:23:23;4.02;95.52
69503;SHT31;56704;54.242;12.442;2023-03-14T12:28:51;3.80;95.95
69503;SHT31;56704;54.242;12.442;2023-03-14T12:31:41;3.77;96.61
69503;SHT31;56704;54.242;12.442;2023-03-14T12:34:31;3.69;95.64
69503;SHT31;56704;54.242;12.442;2023-03-14T12:37:21;3.64;95.43
69503;SHT31;56704;54.242;12.442;2023-03-14T12:39:59;3.55;97.66
69503;SHT31;56704;54.242;12.442;2023-03-14T12:42:40;3.50;97.61
69503;SHT31;56704;54.242;12.442;2023-03-14T12:45:27;3.36;97.54
69503;SHT31;56704;54.242;12.442;2023-03-14T12:47:59;3.28;97.41
69503;SHT31;56704;54.242;12.442;2023-03-14T12:50:32;3.18;97.41
69503;SHT31;56704;54.242;12.442;2023-03-14T12:56:08;3.07;96.75
69503;SHT31;56704;54.242;12.442;2023-03-14T12:58:39;3.08;97.24
69503;SHT31;56704;54.242;12.442;2023-03-14T13:01:16;3.08;96.71
69503;SHT31;56704;54.242;12.442;2023-03-14T13:03:45;3.08;95.30
69503;SHT31;56704;54.242;12.442;2023-03-14T13:09:45;3.15;95.41
69503;SHT31;56704;54.242;12.442;2023-03-14T13:12:17;3.11;95.09
69503;SHT31;56704;54.242;12.442;2023-03-14T13:14:46;3.12;95.49
69503;SHT31;56704;54.242;12.442;2023-03-14T13:17:18;3.16;95.53
69503;SHT31;56704;54.242;12.442;2023-03-14T13:19:49;3.25;95.95
69503;SHT31;56704;54.242;12.442;2023-03-14T13:22:21;3.25;95.30
69503;SHT31;56704;54.242;12.442;2023-03-14T13:24:49;3.38;96.51
69503;SHT31;56704;54.242;12.442;2023-03-14T13:27:17;3.38;95.63
69503;SHT31;56704;54.242;12.442;2023-03-14T13:29:48;3.49;96.19
69503;SHT31;56704;54.242;12.442;2023-03-14T13:32:20;3.49;95.67
69503;SHT31;56704;54.242;12.442;2023-03-14T13:34:47;3.50;96.16
69503;SHT31;56704;54.242;12.442;2023-03-14T13:37:18;3.56;95.82
69503;SHT31;56704;54.242;12.442;2023-03-14T13:39:49;3.62;95.46
69503;SHT31;56704;54.242;12.442;2023-03-14T13:42:16;3.73;95.67
69503;SHT31;56704;54.242;12.442;2023-03-14T13:44:43;3.71;95.83
69503;SHT31;56704;54.242;12.442;2023-03-14T13:47:14;3.70;95.14
69503;SHT31;56704;54.242;12.442;2023-03-14T13:49:43;3.76;94.90
69503;SHT31;56704;54.242;12.442;2023-03-14T13:52:24;3.83;95.95
69503;SHT31;56704;54.242;12.442;2023-03-14T13:54:53;3.80;95.52
69503;SHT31;56704;54.242;12.442;2023-03-14T13:57:20;3.78;95.32
69503;SHT31;56704;54.242;12.442;2023-03-14T13:59:58;3.71;95.48
69503;SHT31;56704;54.242;12.442;2023-03-14T14:02:25;3.69;95.05
69503;SHT31;56704;54.242;12.442;2023-03-14T14:04:54;3.70;95.19
69503;SHT31;56704;54.242;12.442;2023-03-14T14:07:22;3.70;95.64
69503;SHT31;56704;54.242;12.442;2023-03-14T14:09:50;3.69;96.08
69503;SHT31;56704;54.242;12.442;2023-03-14T14:12:20;3.69;95.65
69503;SHT31;56704;54.242;12.442;2023-03-14T14:14:52;3.66;95.58
69503;SHT31;56704;54.242;12.442;2023-03-14T14:17:24;3.62;95.79
69503;SHT31;56704;54.242;12.442;2023-03-14T14:19:52;3.56;96.30
69503;SHT31;56704;54.242;12.442;2023-03-14T14:22:20;3.56;95.60
69503;SHT31;56704;54.242;12.442;2023-03-14T14:24:46;3.59;96.40
69503;SHT31;56704;54.242;12.442;2023-03-14T14:27:16;3.63;96.00
69503;SHT31;56704;54.242;12.442;2023-03-14T14:29:43;3.69;95.71
69503;SHT31;56704;54.242;12.442;2023-03-14T14:32:12;3.70;95.47
69503;SHT31;56704;54.242;12.442;2023-03-14T14:34:40;3.73;95.23
69503;SHT31;56704;54.242;12.442;2023-03-14T14:37:22;3.78;95.10
69503;SHT31;56704;54.242;12.442;2023-03-14T14:39:51;3.80;94.50
69503;SHT31;56704;54.242;12.442;2023-03-14T14:42:20;3.86;94.71
69503;SHT31;56704;54.242;12.442;2023-03-14T14:44:49;3.91;94.22
69503;SHT31;56704;54.242;12.442;2023-03-14T14:47:20;3.93;94.07
69503;SHT31;56704;54.242;12.442;2023-03-14T14:49:47;3.99;93.07
69503;SHT31;56704;54.242;12.442;2023-03-14T14:52:16;3.97;92.92
69503;SHT31;56704;54.242;12.442;2023-03-14T14:54:45;4.04;93.02
69503;SHT31;56704;54.242;12.442;2023-03-14T14:57:18;3.99;93.06
69503;SHT31;56704;54.242;12.442;2023-03-14T14:59:44;4.07;92.64
69503;SHT31;56704;54.242;12.442;2023-03-14T15:02:27;4.05;92.23
69503;SHT31;56704;54.242;12.442;2023-03-14T15:04:54;4.11;92.82
69503;SHT31;56704;54.242;12.442;2023-03-14T15:07:21;4.14;92.43
69503;SHT31;56704;54.242;12.442;2023-03-14T15:09:49;4.15;91.11
69503;SHT31;56704;54.242;12.442;2023-03-14T15:12:15;4.12;91.11
69503;SHT31;56704;54.242;12.442;2023-03-14T15:14:42;4.12;91.05
69503;SHT31;56704;54.242;12.442;2023-03-14T15:17:10;4.14;90.24
69503;SHT31;56704;54.242;12.442;2023-03-14T15:19:37;4.12;90.25
69503;SHT31;56704;54.242;12.442;2023-03-14T15:22:07;4.11;90.08
69503;SHT31;56704;54.242;12.442;2023-03-14T15:24:35;4.12;89.91
69503;SHT31;56704;54.242;12.442;2023-03-14T15:27:04;4.12;88.98
69503;SHT31;56704;54.242;12.442;2023-03-14T15:29:31;4.15;87.37
69503;SHT31;56704;54.242;12.442;2023-03-14T15:31:58;4.15;87.36
69503;SHT31;56704;54.242;12.442;2023-03-14T15:34:24;4.19;86.30
69503;SHT31;56704;54.242;12.442;2023-03-14T15:36:52;4.17;87.26
69503;SHT31;56704;54.242;12.442;2023-03-14T15:39:19;4.14;87.89
69503;SHT31;56704;54.242;12.442;2023-03-14T15:41:45;4.17;87.86